Nearby METAR Reports

 

KAVP - Avoca/Wilkes B., Pennsylvania, USA
Distance from station: N 16mi, 25km
Updated: 09/28/2022 5:54pm
Overcast
Overcast
 Wind from N
Wind: N 5 mph , 7 km/h
Temperature: 61°F , 16°C
Dew Point: 52°F , 11°C
Humidity: 72%
Barometer: 30.21 inHg , 1023 hPa
Clouds: Overcast
Visibility: 10 miles , 16 km
Cloud details: Partly cloudy 2900 ft
Mostly cloudy 3900 ft
Overcast 7000 ft
2022/09/28 21:54 KAVP 282154Z 35004KT 10SM SCT029 BKN039 OVC070 16/11 A3021 RMK AO2 RAE06 SLP230 P0000 T01560111
KMPO - Mt. Pocono, Pennsylvania, USA
Distance from station: E 20mi, 33km
Updated: 09/28/2022 6:00pm
Overcast
Overcast
 Wind from NW
Wind: NW 10 mph , 17 km/h
Temperature: 54°F , 12°C
Dew Point: 50°F , 10°C
Humidity: 88%
Barometer: 30.20 inHg , 1022.7 hPa
Clouds: Overcast
Visibility: 10 miles , 16 km
Cloud details: Few Clouds 1900 ft
Partly cloudy 3600 ft
Overcast 4700 ft
2022/09/28 22:00 KMPO 282200Z AUTO 31009KT 10SM FEW019 SCT036 OVC047 12/10 A3020 RMK AO2 T01220100
 
KABE - Allentown, Pennsylvania, USA
Distance from station: SSE 36mi, 58km
Updated: 09/28/2022 5:51pm
Overcast
Overcast
 Wind from NW
Wind: NW 9 mph , 15 km/h
Temperature: 64°F , 18°C
Dew Point: 48°F , 9°C
Humidity: 56%
Barometer: 30.17 inHg , 1021.7 hPa
Clouds: Overcast
Visibility: 10 miles , 16 km
Cloud details: Few Clouds 4400 ft
Overcast 9000 ft
2022/09/28 21:51 KABE 282151Z 32008KT 10SM FEW044 OVC090 18/09 A3017 RMK AO2 SLP215 T01780094
KXLL - Allentown Queen, Pennsylvania, USA
Distance from station: SSE 41mi, 65km
Updated: 09/28/2022 6:35pm
Overcast
Overcast
 Wind from NNW
Wind: NNW 8 mph , 13 km/h
Temperature: 63°F , 17°C
Dew Point: 50°F , 10°C
Humidity: 64%
Barometer: 30.20 inHg , 1022.7 hPa
Clouds: Overcast
Visibility: 10 miles , 16 km
Cloud details: Partly cloudy 4600 ft
Mostly cloudy 7000 ft
Overcast 8500 ft
2022/09/28 22:35 KXLL 282235Z AUTO 33007KT 10SM SCT046 BKN070 OVC085 17/10 A3020 RMK AO2